アルジェ の空港の天気 - METARとTAF

ウアリ・ブーメディアン空港 ( DAAG / ALG ) - アルジェリア アルジェ
飛行場実況気象(Metar)
観測時間04/25 07:00 CET (04/25 06:00 UTC)
風向・風速南東 4m/s
視程8000m
天気現象
少しの雲 雲底高度 610m
全天の4割程度の雲 雲底高度 1620m
全天の8割程度の雲 雲底高度 2830m
気温18℃
湿度88%
気圧1014hPa
METARDAAG 250600Z 13007KT 070V150 8000 FEW020TCU SCT053 BKN093 18/16 Q1014
過去の天気等 Google飛行場航空写真 Wunderground天気予報

過去48時間のMETAR

飛行場予報(TAF)
発表時間: 4/25 06:00 CET (4/25 05:00 UTC)
予報対象時間: 25日7時 CET ~ 26日7時 CET
風向・風速北東 6m/s
視程8,000m
少しの雲 雲底高度 790m
全天の4割程度の雲 雲底高度 3,050m
25日7時 CET ~ 25日13時 CET に一時的に
視程5,000m
天気現象弱い雨
少しの積乱雲 雲底高度 700m
25日13時 CET ~ 25日18時 CET に 確率 40% で一時的に
風向・風速北東 8m/s 瞬間風速 13m/s
視程3,000m
天気現象雷雨
全天の4割程度の塔状積雲 雲底高度 700m
少しの積乱雲 雲底高度 790m
25日17時 CET ~ 25日20時 CET に徐々に
風向・風速不定 1m/s
TAF DAAG 250500Z 2506/2606 04012KT 8000 FEW026 SCT100
TEMPO 2506/2512 5000 -RA FEW023CB
PROB40 TEMPO 2512/2517 04015G25KT 3000 TSRA SCT023TCU FEW026CB
BECMG 2516/2519 VRB02KT